createdAt,value
2023-04-16T00:00:48.421Z,27.13
2023-04-16T00:05:55.701Z,26.77
2023-04-16T00:11:02.344Z,26.50
2023-04-16T00:16:04.284Z,24.90
2023-04-16T00:21:11.300Z,28.73
2023-04-16T00:26:13.010Z,29.17
2023-04-16T00:31:26.899Z,30.97
2023-04-16T00:36:29.020Z,28.57
2023-04-16T00:41:30.939Z,29.83
2023-04-16T00:46:38.334Z,32.33
2023-04-16T00:51:42.448Z,32.03
2023-04-16T00:56:49.806Z,33.73
2023-04-16T01:01:51.704Z,30.33
2023-04-16T01:07:01.014Z,31.47
2023-04-16T01:12:05.295Z,32.13
2023-04-16T01:17:07.005Z,31.30
2023-04-16T01:22:08.714Z,29.77
2023-04-16T01:27:10.540Z,29.53
2023-04-16T01:32:12.321Z,29.27
2023-04-16T01:37:17.720Z,28.20
2023-04-16T01:42:21.068Z,27.20
2023-04-16T01:47:27.780Z,27.20
2023-04-16T01:52:29.675Z,29.27
2023-04-16T01:57:31.842Z,29.50
2023-04-16T02:02:36.373Z,29.30
2023-04-16T02:07:40.692Z,27.30
2023-04-16T02:12:44.752Z,26.77
2023-04-16T02:17:56.930Z,27.27
2023-04-16T02:23:00.454Z,26.83
2023-04-16T02:28:05.277Z,26.17
2023-04-16T02:33:14.460Z,26.57
2023-04-16T02:38:28.414Z,26.33
2023-04-16T02:43:30.243Z,25.07
2023-04-16T02:48:36.711Z,24.80
2023-04-16T02:53:40.584Z,26.10
2023-04-16T02:58:42.382Z,25.63
2023-04-16T03:03:46.449Z,25.60
2023-04-16T03:08:48.319Z,26.17
2023-04-16T03:13:52.490Z,26.13
2023-04-16T03:18:56.708Z,23.70
2023-04-16T03:23:58.401Z,24.43
2023-04-16T03:29:00.167Z,24.57
2023-04-16T03:34:06.186Z,23.07
2023-04-16T03:39:08.607Z,26.00
2023-04-16T03:44:13.944Z,24.97
2023-04-16T03:49:21.087Z,24.90
2023-04-16T03:54:25.472Z,25.57
2023-04-16T03:59:36.009Z,24.87
2023-04-16T04:04:40.251Z,26.53
2023-04-16T04:09:51.240Z,24.90
2023-04-16T04:14:53.001Z,26.27
2023-04-16T04:20:01.660Z,25.43
2023-04-16T04:25:12.135Z,24.80
2023-04-16T04:30:13.908Z,26.70
2023-04-16T04:35:16.636Z,27.83
2023-04-16T04:40:21.052Z,26.43
2023-04-16T04:45:30.371Z,29.63
2023-04-16T04:50:36.790Z,28.67
2023-04-16T04:55:41.030Z,28.90
2023-04-16T05:00:48.614Z,30.50
2023-04-16T05:05:50.490Z,27.83
2023-04-16T05:10:57.208Z,30.20
2023-04-16T05:15:58.892Z,27.93
2023-04-16T05:21:03.817Z,26.13
2023-04-16T05:26:08.115Z,26.00
2023-04-16T05:31:14.274Z,25.17
2023-04-16T05:36:16.148Z,25.27
2023-04-16T05:41:20.398Z,23.90
2023-04-16T05:46:22.269Z,21.10
2023-04-16T05:51:27.638Z,21.10
2023-04-16T05:56:29.334Z,21.43
2023-04-16T06:01:32.795Z,20.60
2023-04-16T06:06:37.456Z,20.90
2023-04-16T06:11:39.293Z,20.00
2023-04-16T06:16:41.057Z,20.97
2023-04-16T06:21:47.648Z,19.87
2023-04-16T06:26:49.336Z,20.40
2023-04-16T06:31:51.234Z,20.10
2023-04-16T06:36:52.996Z,20.60
2023-04-16T06:41:57.478Z,19.37
2023-04-16T06:46:59.214Z,19.53
2023-04-16T06:52:00.992Z,19.20
2023-04-16T06:57:02.829Z,19.33
2023-04-16T07:02:11.100Z,18.70
2023-04-16T07:07:12.953Z,18.57
2023-04-16T07:12:14.683Z,20.23
2023-04-16T07:17:16.738Z,19.50
2023-04-16T07:22:20.907Z,19.73
2023-04-16T07:27:27.175Z,20.60
2023-04-16T07:32:31.187Z,18.53
2023-04-16T07:37:32.910Z,19.10
2023-04-16T07:42:37.812Z,18.87
2023-04-16T07:47:39.654Z,16.70
2023-04-16T07:52:45.325Z,17.10
2023-04-16T07:57:49.305Z,16.63
2023-04-16T08:02:51.230Z,17.00
2023-04-16T08:07:53.046Z,16.95
2023-04-16T08:12:57.189Z,16.58
2023-04-16T08:18:01.540Z,16.58
2023-04-16T08:23:03.405Z,17.10
2023-04-16T08:28:05.503Z,16.27
2023-04-16T08:33:07.298Z,16.48
2023-04-16T08:38:11.520Z,16.73
2023-04-16T08:43:15.557Z,16.00
2023-04-16T08:48:20.027Z,15.25
2023-04-16T08:53:55.537Z,16.95
2023-04-16T08:59:03.110Z,15.02
2023-04-16T09:04:05.425Z,16.92
2023-04-16T09:09:11.845Z,14.75
2023-04-16T09:14:13.902Z,15.25
2023-04-16T09:19:20.471Z,15.30
2023-04-16T09:24:22.251Z,14.27
2023-04-16T09:29:37.775Z,14.80
2023-04-16T09:34:59.437Z,13.90
2023-04-16T09:40:05.445Z,14.40
2023-04-16T09:45:07.567Z,13.73
2023-04-16T09:50:18.623Z,14.15
2023-04-16T09:55:23.985Z,12.18
2023-04-16T10:00:34.449Z,12.48
2023-04-16T10:05:38.427Z,12.15
2023-04-16T10:10:42.677Z,12.30
2023-04-16T10:15:48.135Z,12.77
2023-04-16T10:20:51.086Z,12.45
2023-04-16T10:25:57.765Z,11.77
2023-04-16T10:30:59.974Z,11.52
2023-04-16T10:36:18.575Z,14.55
2023-04-16T10:41:21.148Z,11.45
2023-04-16T10:46:26.931Z,13.05
2023-04-16T10:51:37.301Z,12.25
2023-04-16T10:56:44.507Z,11.73
2023-04-16T11:01:54.273Z,12.32
2023-04-16T11:07:18.410Z,12.45
2023-04-16T11:12:34.720Z,11.95
2023-04-16T11:17:43.977Z,12.07
2023-04-16T11:22:54.677Z,13.32
2023-04-16T11:27:59.177Z,12.57
2023-04-16T11:33:11.303Z,11.98
2023-04-16T11:38:13.037Z,13.60
2023-04-16T11:43:19.196Z,13.80
2023-04-16T11:48:23.135Z,13.13
2023-04-16T11:53:24.969Z,14.13
2023-04-16T11:58:28.974Z,13.52
2023-04-16T12:03:48.818Z,12.85
2023-04-16T12:08:53.088Z,13.40
2023-04-16T12:14:13.183Z,11.90
2023-04-16T12:19:17.884Z,12.35
2023-04-16T12:24:27.545Z,12.60
2023-04-16T12:29:29.290Z,10.90
2023-04-16T12:34:48.933Z,11.43
2023-04-16T12:39:56.091Z,11.40
2023-04-16T12:44:57.864Z,11.35
2023-04-16T12:49:59.695Z,13.73
2023-04-16T12:55:02.564Z,15.02
2023-04-16T13:00:08.138Z,12.57
2023-04-16T13:05:17.252Z,12.85
2023-04-16T13:10:22.100Z,12.07
2023-04-16T13:15:28.900Z,11.13
2023-04-16T13:20:30.673Z,12.45
2023-04-16T13:25:34.495Z,11.85
2023-04-16T13:30:36.358Z,12.15
2023-04-16T13:35:38.121Z,10.85
2023-04-16T13:40:39.900Z,13.55
2023-04-16T13:45:41.710Z,15.88
2023-04-16T13:50:52.069Z,16.15
2023-04-16T13:56:07.140Z,16.98
2023-04-16T14:01:11.556Z,18.08
2023-04-16T14:06:18.016Z,16.90
2023-04-16T14:11:24.698Z,16.48
2023-04-16T14:16:27.486Z,16.33
2023-04-16T14:21:30.061Z,18.48
2023-04-16T14:26:31.883Z,17.33
2023-04-16T14:31:36.792Z,16.05
2023-04-16T14:36:38.568Z,14.32
2023-04-16T14:41:40.495Z,15.07
2023-04-16T14:46:42.600Z,14.52
2023-04-16T14:51:45.493Z,13.48
2023-04-16T14:56:50.384Z,12.82
2023-04-16T15:01:55.122Z,12.85
2023-04-16T15:06:59.084Z,15.70
2023-04-16T15:12:03.074Z,16.17
2023-04-16T15:17:04.882Z,15.95
2023-04-16T15:22:09.539Z,18.13
2023-04-16T15:27:14.715Z,17.75
2023-04-16T15:32:16.606Z,18.02
2023-04-16T15:37:18.542Z,19.20
2023-04-16T15:42:20.309Z,16.67
2023-04-16T15:47:22.093Z,16.83
2023-04-16T15:52:23.868Z,18.05
2023-04-16T15:57:25.649Z,18.13
2023-04-16T16:02:29.816Z,17.90
2023-04-16T16:07:34.286Z,19.13
2023-04-16T16:12:36.428Z,18.45
2023-04-16T16:17:40.898Z,18.58
2023-04-16T16:22:46.660Z,18.88
2023-04-16T16:27:48.390Z,19.60
2023-04-16T16:32:50.875Z,19.90
2023-04-16T16:37:57.285Z,20.10
2023-04-16T16:43:01.838Z,21.17
2023-04-16T16:48:07.160Z,21.23
2023-04-16T16:53:11.316Z,22.45
2023-04-16T16:58:13.295Z,21.73
2023-04-16T17:03:15.268Z,22.92
2023-04-16T17:08:17.139Z,20.63
2023-04-16T17:13:20.643Z,21.08
2023-04-16T17:18:22.372Z,21.77
2023-04-16T17:23:24.226Z,22.40
2023-04-16T17:28:28.242Z,20.58
2023-04-16T17:33:40.111Z,21.50
2023-04-16T17:38:46.218Z,21.73
2023-04-16T17:43:49.677Z,20.65
2023-04-16T17:48:53.694Z,20.05
2023-04-16T17:53:55.423Z,21.63
2023-04-16T17:58:59.332Z,21.90
2023-04-16T18:04:01.129Z,20.73
2023-04-16T18:09:05.754Z,20.73
2023-04-16T18:14:09.927Z,24.13
2023-04-16T18:19:14.046Z,21.98
2023-04-16T18:24:18.046Z,21.85
2023-04-16T18:29:24.265Z,21.48
2023-04-16T18:34:32.265Z,23.63
2023-04-16T18:39:34.086Z,23.05
2023-04-16T18:44:36.239Z,21.77
2023-04-16T18:49:37.975Z,22.07
2023-04-16T18:54:40.935Z,23.23
2023-04-16T18:59:44.972Z,23.08
2023-04-16T19:04:46.706Z,22.93
2023-04-16T19:09:48.464Z,22.52
2023-04-16T19:14:52.700Z,22.45
2023-04-16T19:19:59.164Z,22.75
2023-04-16T19:25:00.912Z,21.33
2023-04-16T19:30:03.571Z,22.02
2023-04-16T19:35:08.186Z,22.05
2023-04-16T19:40:10.267Z,22.67
2023-04-16T19:45:17.658Z,23.73
2023-04-16T19:50:20.132Z,23.27
2023-04-16T19:55:24.062Z,24.40
2023-04-16T20:00:30.815Z,25.13
2023-04-16T20:05:32.839Z,23.70
2023-04-16T20:10:37.344Z,22.83
2023-04-16T20:15:43.541Z,21.08
2023-04-16T20:20:45.294Z,22.45
2023-04-16T20:25:47.242Z,22.70
2023-04-16T20:30:51.353Z,23.15
2023-04-16T20:35:57.597Z,25.40
2023-04-16T20:41:11.020Z,25.23
2023-04-16T20:46:15.768Z,26.00
2023-04-16T20:51:17.782Z,26.33
2023-04-16T20:56:21.990Z,25.80
2023-04-16T21:01:26.334Z,26.03
2023-04-16T21:06:33.079Z,24.30
2023-04-16T21:11:37.085Z,25.00
2023-04-16T21:16:41.576Z,24.45
2023-04-16T21:21:43.453Z,26.42
2023-04-16T21:26:47.276Z,23.65
2023-04-16T21:31:49.089Z,24.50
2023-04-16T21:36:55.474Z,25.75
2023-04-16T21:41:59.545Z,27.23
2023-04-16T21:47:03.568Z,26.33
2023-04-16T21:52:18.117Z,27.42
2023-04-16T21:57:22.090Z,29.60
2023-04-16T22:02:24.206Z,29.10
2023-04-16T22:07:28.959Z,30.23
2023-04-16T22:12:39.827Z,29.03
2023-04-16T22:17:45.546Z,28.67
2023-04-16T22:22:49.692Z,28.48
2023-04-16T22:27:52.578Z,26.63
2023-04-16T22:32:54.362Z,27.20
2023-04-16T22:37:59.061Z,25.87
2023-04-16T22:43:02.797Z,24.57
2023-04-16T22:48:07.068Z,23.77
2023-04-16T22:53:16.074Z,24.07
2023-04-16T22:58:17.895Z,25.40
2023-04-16T23:03:24.543Z,28.73
2023-04-16T23:08:31.066Z,26.53
2023-04-16T23:13:35.646Z,28.37
2023-04-16T23:18:37.304Z,27.60
2023-04-16T23:23:38.974Z,28.17
2023-04-16T23:28:42.877Z,29.40
2023-04-16T23:33:46.879Z,31.77
2023-04-16T23:38:51.068Z,28.83
2023-04-16T23:43:52.901Z,29.70
2023-04-16T23:48:55.431Z,29.20
2023-04-16T23:53:57.262Z,29.30
2023-04-16T23:59:03.735Z,30.73
